Wetterdaten: Woche 19.11.12 - 25.11.12 (KW47)
Datum Zeit Temp. A. Feuchte A. Luftdruck Regen Wind Richtung Taupunkt Windchill Windben
19.11.2012 00:00 5,7 C 81 % 1018,7 hPa 0,0 l/m 0,0 km/h N 2,7 C 5,7 C 0,0 km/h
19.11.2012 01:00 5,5 C 81 % 1018,8 hPa 0,0 l/m 0,0 km/h N 2,5 C 5,5 C 0,8 km/h
19.11.2012 02:00 5,3 C 81 % 1019,1 hPa 0,0 l/m 0,0 km/h N 2,3 C 5,3 C 0,8 km/h
19.11.2012 03:00 5,3 C 81 % 1019,0 hPa 0,0 l/m 0,1 km/h N 2,2 C 5,3 C 2,4 km/h
19.11.2012 04:00 5,3 C 81 % 1019,1 hPa 0,0 l/m 0,0 km/h N 2,3 C 5,3 C 0,4 km/h
19.11.2012 05:00 5,3 C 81 % 1019,3 hPa 0,0 l/m 0,0 km/h N 2,3 C 5,3 C 0,0 km/h
19.11.2012 06:00 5,3 C 81 % 1019,5 hPa 0,0 l/m 0,0 km/h N 2,4 C 5,3 C 0,0 km/h
19.11.2012 07:00 5,6 C 81 % 1019,9 hPa 0,0 l/m 0,0 km/h N 2,5 C 5,6 C 0,4 km/h
19.11.2012 08:00 5,8 C 80 % 1020,2 hPa 0,0 l/m 0,0 km/h N 2,6 C 5,8 C 0,0 km/h
19.11.2012 09:00 5,9 C 80 % 1020,4 hPa 0,0 l/m 0,0 km/h N 2,7 C 5,9 C 1,2 km/h
19.11.2012 10:00 6,1 C 80 % 1020,5 hPa 0,0 l/m 0,0 km/h N 2,9 C 6,1 C 0,8 km/h
19.11.2012 11:00 6,4 C 80 % 1020,5 hPa 0,0 l/m 0,0 km/h N 3,2 C 6,4 C 0,0 km/h
19.11.2012 12:00 6,7 C 79 % 1020,0 hPa 0,0 l/m 0,0 km/h N 3,3 C 6,7 C 0,4 km/h
19.11.2012 13:00 6,8 C 79 % 1019,8 hPa 0,0 l/m 0,1 km/h N 3,5 C 6,8 C 2,4 km/h
19.11.2012 14:00 6,9 C 79 % 1019,8 hPa 0,0 l/m 0,2 km/h N 3,5 C 6,9 C 3,2 km/h
19.11.2012 15:00 6,9 C 79 % 1019,9 hPa 0,0 l/m 0,0 km/h N 3,5 C 6,9 C 0,4 km/h
19.11.2012 16:00 6,9 C 79 % 1020,2 hPa 0,0 l/m 0,0 km/h N 3,5 C 6,9 C 0,0 km/h
19.11.2012 17:00 7,0 C 79 % 1020,3 hPa 0,0 l/m 0,3 km/h N 3,6 C 7,0 C 2,0 km/h
19.11.2012 18:00 7,0 C 78 % 1020,6 hPa 0,0 l/m 0,0 km/h N 3,4 C 7,0 C 0,0 km/h
19.11.2012 19:00 7,1 C 78 % 1020,7 hPa 0,0 l/m 0,2 km/h N 3,5 C 7,1 C 4,0 km/h
19.11.2012 20:00 7,2 C 78 % 1020,6 hPa 0,0 l/m 1,6 km/h N 3,6 C 7,2 C 8,4 km/h
19.11.2012 21:00 7,3 C 77 % 1020,6 hPa 0,0 l/m 2,1 km/h N 3,6 C 7,3 C 8,0 km/h
19.11.2012 22:00 7,3 C 78 % 1020,3 hPa 0,0 l/m 2,1 km/h N 3,7 C 7,3 C 6,8 km/h
19.11.2012 23:00 7,3 C 78 % 1020,5 hPa 0,0 l/m 0,6 km/h N 3,6 C 7,3 C 6,0 km/h
20.11.2012 00:00 7,3 C 78 % 1020,5 hPa 0,0 l/m 2,3 km/h N 3,8 C 7,3 C 10,5 km/h
20.11.2012 01:00 7,4 C 78 % 1020,5 hPa 0,0 l/m 2,9 km/h N 3,8 C 7,4 C 8,8 km/h
20.11.2012 02:00 7,3 C 79 % 1020,7 hPa 0,0 l/m 3,5 km/h N 3,9 C 7,3 C 10,5 km/h
20.11.2012 03:00 6,5 C 81 % 1020,8 hPa 0,3 l/m 2,9 km/h N 3,5 C 6,5 C 9,7 km/h
20.11.2012 04:00 5,8 C 80 % 1020,9 hPa 0,0 l/m 2,2 km/h N 2,6 C 5,8 C 7,6 km/h
20.11.2012 05:00 5,7 C 79 % 1021,0 hPa 0,0 l/m 1,6 km/h N 2,4 C 5,7 C 7,2 km/h
20.11.2012 06:00 5,2 C 79 % 1021,2 hPa 0,0 l/m 1,6 km/h N 1,9 C 5,2 C 7,6 km/h
20.11.2012 07:00 4,7 C 79 % 1021,8 hPa 0,0 l/m 2,9 km/h N 1,4 C 4,7 C 8,8 km/h
20.11.2012 08:00 4,8 C 78 % 1022,3 hPa 0,0 l/m 2,7 km/h N 1,3 C 4,8 C 8,9 km/h
20.11.2012 09:00 5,2 C 78 % 1022,5 hPa 0,0 l/m 4,1 km/h N 1,6 C 5,2 C 10,9 km/h
20.11.2012 10:00 5,8 C 77 % 1022,5 hPa 0,0 l/m 2,1 km/h N 2,1 C 5,8 C 7,2 km/h
20.11.2012 11:00 6,3 C 77 % 1022,3 hPa 0,0 l/m 3,1 km/h N 2,6 C 6,3 C 8,0 km/h
20.11.2012 12:00 7,0 C 77 % 1022,0 hPa 0,0 l/m 1,0 km/h N 3,1 C 7,0 C 6,0 km/h
20.11.2012 13:00 7,6 C 77 % 1021,9 hPa 0,0 l/m 0,4 km/h N 3,7 C 7,6 C 5,2 km/h
20.11.2012 14:00 7,0 C 78 % 1021,8 hPa 0,0 l/m 1,1 km/h N 3,5 C 7,0 C 7,6 km/h
20.11.2012 15:00 6,1 C 79 % 1022,1 hPa 0,0 l/m 0,7 km/h N 2,7 C 6,1 C 5,6 km/h
20.11.2012 16:00 5,7 C 79 % 1022,3 hPa 0,0 l/m 0,5 km/h N 2,4 C 5,7 C 5,2 km/h
20.11.2012 17:00 5,5 C 79 % 1022,5 hPa 0,0 l/m 1,6 km/h N 2,2 C 5,5 C 7,6 km/h
20.11.2012 18:00 5,3 C 80 % 1022,8 hPa 0,0 l/m 3,1 km/h N 2,1 C 5,3 C 9,3 km/h
20.11.2012 19:00 5,1 C 79 % 1022,9 hPa 0,0 l/m 2,8 km/h N 1,8 C 5,1 C 10,5 km/h
20.11.2012 20:00 4,9 C 79 % 1023,1 hPa 0,0 l/m 2,2 km/h N 1,6 C 4,9 C 8,4 km/h
20.11.2012 21:00 5,1 C 79 % 1023,1 hPa 0,0 l/m 1,0 km/h N 1,8 C 5,1 C 5,6 km/h
20.11.2012 22:00 5,2 C 79 % 1023,0 hPa 0,0 l/m 0,1 km/h N 1,8 C 5,2 C 2,8 km/h
20.11.2012 23:00 5,3 C 79 % 1022,8 hPa 0,0 l/m 0,0 km/h N 1,9 C 5,3 C 0,8 km/h
21.11.2012 00:00 5,6 C 78 % 1022,6 hPa 0,0 l/m 0,3 km/h N 2,0 C 5,6 C 4,8 km/h
21.11.2012 01:00 5,5 C 79 % 1022,2 hPa 0,0 l/m 0,1 km/h N 2,1 C 5,5 C 2,0 km/h
21.11.2012 02:00 5,3 C 78 % 1022,0 hPa 0,0 l/m 0,0 km/h N 1,8 C 5,3 C 0,0 km/h
21.11.2012 03:00 5,5 C 78 % 1021,7 hPa 0,0 l/m 0,0 km/h N 1,9 C 5,5 C 0,0 km/h
21.11.2012 04:00 6,2 C 78 % 1021,5 hPa 0,0 l/m 2,9 km/h N 2,6 C 6,2 C 8,5 km/h
21.11.2012 05:00 6,5 C 78 % 1021,3 hPa 0,0 l/m 5,0 km/h N 3,0 C 6,5 C 15,3 km/h
21.11.2012 06:00 6,5 C 79 % 1021,4 hPa 0,0 l/m 3,8 km/h N 3,1 C 6,5 C 11,3 km/h
21.11.2012 07:00 6,4 C 80 % 1021,4 hPa 0,0 l/m 5,3 km/h N 3,1 C 6,4 C 18,5 km/h
21.11.2012 08:00 6,3 C 80 % 1021,4 hPa 0,0 l/m 2,6 km/h N 3,2 C 6,3 C 12,9 km/h
21.11.2012 09:00 6,8 C 80 % 1021,1 hPa 0,0 l/m 4,5 km/h N 3,6 C 6,8 C 17,3 km/h
21.11.2012 10:00 7,3 C 82 % 1020,8 hPa 0,0 l/m 8,1 km/h N 4,5 C 6,0 C 22,1 km/h
21.11.2012 11:00 8,0 C 84 % 1020,1 hPa 0,0 l/m 10,8 km/h N 5,5 C 4,9 C 23,3 km/h
21.11.2012 12:00 8,5 C 85 % 1019,4 hPa 0,0 l/m 8,1 km/h N 6,1 C 7,0 C 23,3 km/h
21.11.2012 13:00 9,0 C 85 % 1018,8 hPa 0,0 l/m 12,0 km/h N 6,6 C 5,5 C 26,5 km/h
21.11.2012 14:00 9,5 C 85 % 1018,6 hPa 0,0 l/m 8,1 km/h N 7,1 C 8,1 C 23,7 km/h
21.11.2012 15:00 9,4 C 84 % 1018,7 hPa 0,0 l/m 7,6 km/h N 6,9 C 8,6 C 21,7 km/h
21.11.2012 16:00 8,8 C 85 % 1018,8 hPa 0,0 l/m 5,3 km/h N 6,4 C 8,8 C 16,5 km/h
21.11.2012 17:00 8,5 C 84 % 1019,1 hPa 0,0 l/m 5,1 km/h N 6,0 C 8,5 C 14,1 km/h
21.11.2012 18:00 8,3 C 84 % 1019,4 hPa 0,0 l/m 1,8 km/h N 5,7 C 8,3 C 8,1 km/h
21.11.2012 19:00 7,9 C 84 % 1020,0 hPa 0,0 l/m 0,2 km/h N 5,3 C 7,9 C 3,2 km/h
21.11.2012 20:00 7,4 C 84 % 1020,5 hPa 0,0 l/m 0,0 km/h N 4,9 C 7,4 C 0,0 km/h
21.11.2012 21:00 7,4 C 83 % 1021,1 hPa 0,0 l/m 0,0 km/h N 4,6 C 7,4 C 0,0 km/h
21.11.2012 22:00 7,6 C 82 % 1021,3 hPa 0,0 l/m 0,0 km/h N 4,8 C 7,6 C 0,0 km/h
21.11.2012 23:00 7,7 C 82 % 1021,6 hPa 0,0 l/m 0,0 km/h N 4,8 C 7,7 C 0,8 km/h
22.11.2012 00:00 7,3 C 82 % 1021,9 hPa 0,0 l/m 0,0 km/h N 4,4 C 7,3 C 0,0 km/h
22.11.2012 01:00 6,6 C 82 % 1022,3 hPa 0,0 l/m 0,3 km/h N 3,8 C 6,6 C 2,4 km/h
22.11.2012 02:00 6,4 C 82 % 1022,8 hPa 0,0 l/m 0,6 km/h N 3,6 C 6,4 C 3,2 km/h
22.11.2012 03:00 4,9 C 83 % 1023,0 hPa 0,0 l/m 0,1 km/h N 2,3 C 4,9 C 2,0 km/h
22.11.2012 04:00 3,8 C 84 % 1023,4 hPa 0,0 l/m 0,0 km/h N 1,3 C 3,8 C 0,0 km/h
22.11.2012 05:00 2,0 C 84 % 1023,9 hPa 0,0 l/m 0,0 km/h N -0,4 C 2,0 C 0,4 km/h
22.11.2012 06:00 1,3 C 84 % 1024,7 hPa 0,0 l/m 0,0 km/h N -1,1 C 1,3 C 0,8 km/h
22.11.2012 07:00 0,9 C 84 % 1025,4 hPa 0,0 l/m 0,0 km/h N -1,5 C 0,9 C 0,0 km/h
22.11.2012 08:00 1,6 C 82 % 1025,9 hPa 0,0 l/m 0,0 km/h N -1,1 C 1,6 C 0,0 km/h
22.11.2012 09:00 4,0 C 80 % 1026,2 hPa 0,0 l/m 0,1 km/h N 0,7 C 4,0 C 1,2 km/h
22.11.2012 10:00 5,9 C 79 % 1026,4 hPa 0,0 l/m 0,3 km/h N 2,5 C 5,9 C 3,6 km/h
22.11.2012 11:00 6,7 C 80 % 1026,0 hPa 0,0 l/m 0,2 km/h N 3,5 C 6,7 C 2,4 km/h
22.11.2012 12:00 7,8 C 84 % 1025,8 hPa 0,0 l/m 0,6 km/h N 5,2 C 7,8 C 5,2 km/h
22.11.2012 13:00 8,6 C 82 % 1025,4 hPa 0,0 l/m 2,0 km/h N 5,7 C 8,6 C 6,4 km/h
22.11.2012 14:00 9,1 C 79 % 1025,2 hPa 0,0 l/m 1,5 km/h N 5,7 C 9,1 C 7,2 km/h
22.11.2012 15:00 8,8 C 80 % 1025,6 hPa 0,0 l/m 0,3 km/h N 5,5 C 8,8 C 3,2 km/h
22.11.2012 16:00 7,6 C 81 % 1025,8 hPa 0,0 l/m 0,1 km/h N 4,6 C 7,6 C 2,0 km/h
22.11.2012 17:00 5,8 C 82 % 1026,1 hPa 0,0 l/m 0,0 km/h N 2,9 C 5,8 C 0,0 km/h
22.11.2012 18:00 5,0 C 85 % 1026,0 hPa 0,0 l/m 0,0 km/h N 2,7 C 5,0 C 0,0 km/h
22.11.2012 19:00 4,5 C 85 % 1025,9 hPa 0,0 l/m 0,0 km/h N 2,2 C 4,5 C 0,0 km/h
22.11.2012 20:00 3,7 C 85 % 1025,8 hPa 0,0 l/m 0,0 km/h N 1,4 C 3,7 C 0,0 km/h
22.11.2012 21:00 3,3 C 85 % 1025,6 hPa 0,0 l/m 0,0 km/h N 1,0 C 3,3 C 0,0 km/h
22.11.2012 22:00 3,1 C 84 % 1025,3 hPa 0,0 l/m 0,0 km/h N 0,6 C 3,1 C 0,0 km/h
22.11.2012 23:00 3,3 C 83 % 1025,0 hPa 0,0 l/m 0,0 km/h N 0,7 C 3,3 C 0,0 km/h
23.11.2012 00:00 3,8 C 82 % 1024,5 hPa 0,3 l/m 0,0 km/h N 1,0 C 3,8 C 0,0 km/h
23.11.2012 01:00 4,5 C 81 % 1024,2 hPa 1,0 l/m 0,0 km/h N 1,5 C 4,5 C 0,0 km/h
23.11.2012 02:00 4,7 C 81 % 1023,8 hPa 0,5 l/m 0,0 km/h N 1,7 C 4,7 C 0,0 km/h
23.11.2012 03:00 4,9 C 80 % 1023,1 hPa 0,5 l/m 0,0 km/h N 1,8 C 4,9 C 0,8 km/h
23.11.2012 04:00 5,1 C 80 % 1023,0 hPa 0,0 l/m 0,0 km/h N 1,9 C 5,1 C 0,0 km/h
23.11.2012 05:00 5,1 C 80 % 1022,8 hPa 0,0 l/m 0,0 km/h N 2,0 C 5,1 C 0,0 km/h
23.11.2012 06:00 5,2 C 80 % 1022,7 hPa 0,0 l/m 0,0 km/h N 2,1 C 5,2 C 0,0 km/h
23.11.2012 07:00 5,5 C 79 % 1022,9 hPa 0,0 l/m 0,0 km/h N 2,1 C 5,5 C 0,0 km/h
23.11.2012 08:00 5,7 C 79 % 1023,1 hPa 0,0 l/m 0,0 km/h N 2,4 C 5,7 C 0,0 km/h
23.11.2012 09:00 6,1 C 79 % 1023,3 hPa 0,0 l/m 0,0 km/h N 2,8 C 6,1 C 0,0 km/h
23.11.2012 10:00 6,5 C 78 % 1023,3 hPa 0,0 l/m 0,0 km/h N 2,9 C 6,5 C 0,0 km/h
23.11.2012 11:00 6,8 C 78 % 1023,0 hPa 0,0 l/m 0,0 km/h N 3,2 C 6,8 C 0,4 km/h
23.11.2012 12:00 6,8 C 79 % 1022,8 hPa 0,0 l/m 0,1 km/h N 3,4 C 6,8 C 1,6 km/h
23.11.2012 13:00 6,7 C 79 % 1022,7 hPa 0,0 l/m 0,5 km/h N 3,3 C 6,7 C 4,0 km/h
23.11.2012 14:00 6,7 C 80 % 1022,8 hPa 0,0 l/m 0,6 km/h N 3,5 C 6,7 C 3,6 km/h
23.11.2012 15:00 6,6 C 82 % 1023,0 hPa 0,0 l/m 0,3 km/h N 3,7 C 6,6 C 3,2 km/h
23.11.2012 16:00 6,6 C 82 % 1023,3 hPa 0,0 l/m 0,1 km/h N 3,7 C 6,6 C 0,8 km/h
23.11.2012 17:00 6,5 C 83 % 1023,5 hPa 0,0 l/m 0,0 km/h N 3,8 C 6,5 C 1,6 km/h
23.11.2012 18:00 6,4 C 83 % 1023,5 hPa 0,0 l/m 0,1 km/h N 3,8 C 6,4 C 1,2 km/h
23.11.2012 19:00 6,3 C 84 % 1023,9 hPa 0,0 l/m 0,0 km/h N 3,8 C 6,3 C 0,8 km/h
23.11.2012 20:00 6,3 C 84 % 1023,9 hPa 0,0 l/m 0,1 km/h N 3,8 C 6,3 C 0,8 km/h
23.11.2012 21:00 6,3 C 84 % 1024,0 hPa 0,0 l/m 0,5 km/h N 3,8 C 6,3 C 4,4 km/h
23.11.2012 22:00 6,3 C 85 % 1024,0 hPa 0,0 l/m 0,0 km/h N 3,9 C 6,3 C 0,4 km/h
23.11.2012 23:00 6,4 C 84 % 1024,0 hPa 0,0 l/m 0,0 km/h N 3,8 C 6,4 C 0,0 km/h
24.11.2012 00:00 6,4 C 84 % 1023,6 hPa 0,0 l/m 0,5 km/h N 3,9 C 6,4 C 2,8 km/h
24.11.2012 01:00 6,4 C 84 % 1023,6 hPa 0,0 l/m 0,4 km/h N 3,9 C 6,4 C 3,2 km/h
24.11.2012 02:00 6,4 C 84 % 1023,6 hPa 0,0 l/m 0,0 km/h N 3,9 C 6,4 C 0,4 km/h
24.11.2012 03:00 6,3 C 84 % 1023,6 hPa 0,0 l/m 0,1 km/h N 3,8 C 6,3 C 2,4 km/h
24.11.2012 04:00 6,1 C 84 % 1023,4 hPa 0,0 l/m 0,1 km/h N 3,6 C 6,1 C 1,6 km/h
24.11.2012 05:00 5,9 C 84 % 1023,1 hPa 0,0 l/m 0,0 km/h N 3,4 C 5,9 C 0,4 km/h
24.11.2012 06:00 6,0 C 84 % 1023,1 hPa 0,0 l/m 0,1 km/h N 3,5 C 6,0 C 1,2 km/h
24.11.2012 07:00 6,1 C 84 % 1022,9 hPa 0,0 l/m 0,3 km/h N 3,6 C 6,1 C 4,0 km/h
24.11.2012 08:00 5,9 C 84 % 1023,3 hPa 0,0 l/m 1,1 km/h N 3,5 C 5,9 C 6,8 km/h
24.11.2012 09:00 5,8 C 84 % 1023,7 hPa 0,0 l/m 0,5 km/h N 3,3 C 5,8 C 4,0 km/h
24.11.2012 10:00 6,2 C 84 % 1023,7 hPa 0,0 l/m 0,4 km/h N 3,7 C 6,2 C 4,4 km/h
24.11.2012 11:00 6,7 C 85 % 1023,4 hPa 0,0 l/m 0,9 km/h N 4,3 C 6,7 C 6,0 km/h
24.11.2012 12:00 6,9 C 85 % 1023,1 hPa 0,0 l/m 0,8 km/h N 4,6 C 6,9 C 4,8 km/h
24.11.2012 13:00 7,1 C 85 % 1022,9 hPa 0,0 l/m 0,3 km/h N 4,8 C 7,1 C 2,4 km/h
24.11.2012 14:00 7,3 C 85 % 1022,6 hPa 0,0 l/m 0,1 km/h N 5,0 C 7,3 C 2,4 km/h
24.11.2012 15:00 7,6 C 85 % 1022,5 hPa 0,0 l/m 0,0 km/h N 5,2 C 7,6 C 0,0 km/h
24.11.2012 16:00 7,1 C 85 % 1022,5 hPa 0,0 l/m 0,0 km/h N 4,8 C 7,1 C 0,0 km/h
24.11.2012 17:00 6,9 C 85 % 1022,4 hPa 0,0 l/m 0,0 km/h N 4,6 C 6,9 C 0,0 km/h
24.11.2012 18:00 7,2 C 85 % 1022,0 hPa 0,0 l/m 0,0 km/h N 4,9 C 7,2 C 1,2 km/h
24.11.2012 19:00 7,3 C 85 % 1021,8 hPa 0,0 l/m 0,0 km/h N 5,0 C 7,3 C 1,6 km/h
24.11.2012 20:00 7,6 C 84 % 1021,4 hPa 0,0 l/m 0,2 km/h N 5,1 C 7,6 C 2,8 km/h
24.11.2012 21:00 7,5 C 84 % 1020,8 hPa 0,0 l/m 0,5 km/h N 5,0 C 7,5 C 3,6 km/h
24.11.2012 22:00 7,2 C 84 % 1020,3 hPa 0,0 l/m 1,9 km/h N 4,7 C 7,2 C 6,4 km/h
24.11.2012 23:00 6,4 C 84 % 1019,9 hPa 0,0 l/m 0,0 km/h N 3,9 C 6,4 C 0,4 km/h
25.11.2012 00:00 5,2 C 85 % 1019,4 hPa 0,0 l/m 0,0 km/h N 2,8 C 5,2 C 0,0 km/h
25.11.2012 01:00 5,3 C 83 % 1019,2 hPa 0,0 l/m 0,0 km/h N 2,6 C 5,3 C 0,0 km/h
25.11.2012 02:00 6,3 C 81 % 1019,2 hPa 0,0 l/m 0,1 km/h N 3,3 C 6,3 C 0,8 km/h
25.11.2012 03:00 6,6 C 81 % 1018,5 hPa 0,0 l/m 0,0 km/h N 3,5 C 6,6 C 0,0 km/h
25.11.2012 04:00 6,9 C 80 % 1018,3 hPa 0,0 l/m 0,4 km/h N 3,7 C 6,9 C 4,0 km/h
25.11.2012 05:00 7,6 C 79 % 1018,0 hPa 0,0 l/m 3,0 km/h N 4,2 C 7,6 C 10,1 km/h
25.11.2012 06:00 7,6 C 80 % 1018,5 hPa 0,0 l/m 1,3 km/h N 4,4 C 7,6 C 6,8 km/h
25.11.2012 07:00 7,6 C 80 % 1019,3 hPa 0,0 l/m 0,3 km/h N 4,4 C 7,6 C 3,2 km/h
25.11.2012 08:00 7,6 C 80 % 1019,9 hPa 0,0 l/m 2,1 km/h N 4,4 C 7,6 C 8,0 km/h
25.11.2012 09:00 7,9 C 80 % 1020,3 hPa 0,0 l/m 0,9 km/h N 4,7 C 7,9 C 6,0 km/h
25.11.2012 10:00 9,0 C 83 % 1020,2 hPa 0,0 l/m 2,1 km/h N 6,2 C 9,0 C 7,2 km/h
25.11.2012 11:00 9,3 C 83 % 1019,9 hPa 0,0 l/m 3,8 km/h N 6,5 C 9,3 C 10,5 km/h
25.11.2012 12:00 10,1 C 78 % 1019,4 hPa 0,0 l/m 4,9 km/h N 6,4 C 10,1 C 12,9 km/h
25.11.2012 13:00 10,1 C 78 % 1019,0 hPa 0,0 l/m 5,5 km/h N 6,3 C 10,1 C 14,5 km/h
25.11.2012 14:00 9,9 C 78 % 1018,6 hPa 0,0 l/m 6,2 km/h N 6,3 C 9,7 C 16,5 km/h
25.11.2012 15:00 9,5 C 81 % 1019,0 hPa 0,0 l/m 5,6 km/h N 6,4 C 9,5 C 15,7 km/h
25.11.2012 16:00 8,4 C 84 % 1019,3 hPa 0,0 l/m 6,2 km/h N 5,7 C 8,3 C 15,3 km/h
25.11.2012 17:00 7,3 C 85 % 1019,5 hPa 0,0 l/m 0,9 km/h N 4,9 C 7,3 C 6,0 km/h
25.11.2012 18:00 6,5 C 85 % 1019,5 hPa 0,0 l/m 0,1 km/h N 4,2 C 6,5 C 2,8 km/h
25.11.2012 19:00 5,7 C 85 % 1019,6 hPa 0,0 l/m 0,0 km/h N 3,4 C 5,7 C 0,0 km/h
25.11.2012 20:00 5,7 C 84 % 1019,7 hPa 0,0 l/m 0,1 km/h N 3,1 C 5,7 C 2,4 km/h
25.11.2012 21:00 6,2 C 82 % 1019,8 hPa 0,0 l/m 1,2 km/h N 3,4 C 6,2 C 4,8 km/h
25.11.2012 22:00 6,3 C 82 % 1019,5 hPa 0,0 l/m 2,0 km/h N 3,5 C 6,3 C 7,6 km/h
25.11.2012 23:00 6,4 C 83 % 1019,7 hPa 0,0 l/m 2,3 km/h N 3,6 C 6,4 C 8,0 km/h
Min-Datum _ 22.11.12 20.11.12 25.11.12 - 19.11.12 - 22.11.12 22.11.12 19.11.12
_ Min-Zeit 07:15 12:30 04:00 - 00:00 - 07:15 07:15 00:00
Minimum _ 0,7 C 76 % 1017,9 hPa - 0,0 km/h - -1,7 C 0,7 C 0,0 km/h
Max-Datum _ 25.11.12 21.11.12 22.11.12 23.11.12 21.11.12 - 21.11.12 25.11.12 21.11.12
_ Max-Zeit 12:15 11:45 09:45 01:00 13:15 - 14:30 12:15 13:15
Maximum _ 10,2 C 85 % 1026,4 hPa 1,0 l/m 15,1 km/h
N
- 7,2 C 10,2 C 32,2 km/h
N
Durchschnitt _ 6,4 C 81 % 1021,8 hPa #2,6 l/m 1,3 km/h N 3,4 C 6,3 C 4,7 km/h